sensor_id;sensor_type;location;lat;lon;timestamp;temperature;humidity
563;DHT22;266;49.514;8.294;2022-10-16T00:00:13;16.30;99.90
563;DHT22;266;49.514;8.294;2022-10-16T00:02:42;16.30;99.90
563;DHT22;266;49.514;8.294;2022-10-16T00:05:17;16.30;99.90
563;DHT22;266;49.514;8.294;2022-10-16T00:07:47;16.20;99.90
563;DHT22;266;49.514;8.294;2022-10-16T00:10:15;16.20;99.90
563;DHT22;266;49.514;8.294;2022-10-16T00:12:46;16.30;99.90
563;DHT22;266;49.514;8.294;2022-10-16T00:15:16;16.20;99.90
563;DHT22;266;49.514;8.294;2022-10-16T00:17:45;16.30;99.90
563;DHT22;266;49.514;8.294;2022-10-16T00:20:15;16.20;99.90
563;DHT22;266;49.514;8.294;2022-10-16T00:22:43;16.10;99.90
563;DHT22;266;49.514;8.294;2022-10-16T00:25:11;16.00;99.90
563;DHT22;266;49.514;8.294;2022-10-16T00:27:40;16.00;99.90
563;DHT22;266;49.514;8.294;2022-10-16T00:30:10;16.00;99.90
563;DHT22;266;49.514;8.294;2022-10-16T00:32:42;16.10;99.90
563;DHT22;266;49.514;8.294;2022-10-16T00:35:14;16.00;99.90
563;DHT22;266;49.514;8.294;2022-10-16T00:37:43;16.00;99.90
563;DHT22;266;49.514;8.294;2022-10-16T00:40:15;16.00;99.90
563;DHT22;266;49.514;8.294;2022-10-16T00:42:47;16.00;99.90
563;DHT22;266;49.514;8.294;2022-10-16T00:45:15;16.10;99.90
563;DHT22;266;49.514;8.294;2022-10-16T00:47:45;16.10;99.90
563;DHT22;266;49.514;8.294;2022-10-16T00:50:23;16.10;99.90
563;DHT22;266;49.514;8.294;2022-10-16T00:52:54;16.10;99.90
563;DHT22;266;49.514;8.294;2022-10-16T00:55:24;16.10;99.90
563;DHT22;266;49.514;8.294;2022-10-16T00:57:53;16.10;99.90
563;DHT22;266;49.514;8.294;2022-10-16T01:00:24;16.10;99.90
563;DHT22;266;49.514;8.294;2022-10-16T01:02:54;16.10;99.90
563;DHT22;266;49.514;8.294;2022-10-16T01:05:26;16.10;99.90
563;DHT22;266;49.514;8.294;2022-10-16T01:08:03;16.10;99.90
563;DHT22;266;49.514;8.294;2022-10-16T01:10:37;16.10;99.90
563;DHT22;266;49.514;8.294;2022-10-16T01:13:07;16.10;99.90
563;DHT22;266;49.514;8.294;2022-10-16T01:15:39;16.10;99.90
563;DHT22;266;49.514;8.294;2022-10-16T01:18:16;16.20;99.90
563;DHT22;266;49.514;8.294;2022-10-16T01:20:52;16.10;99.90
563;DHT22;266;49.514;8.294;2022-10-16T01:23:37;16.10;99.90
563;DHT22;266;49.514;8.294;2022-10-16T01:26:18;16.10;99.90
563;DHT22;266;49.514;8.294;2022-10-16T01:28:54;16.10;99.90
563;DHT22;266;49.514;8.294;2022-10-16T01:31:28;16.10;99.90
563;DHT22;266;49.514;8.294;2022-10-16T01:34:02;16.10;99.90
563;DHT22;266;49.514;8.294;2022-10-16T01:36:41;16.10;99.90
563;DHT22;266;49.514;8.294;2022-10-16T01:39:14;16.10;99.90
563;DHT22;266;49.514;8.294;2022-10-16T01:41:48;16.10;99.90
563;DHT22;266;49.514;8.294;2022-10-16T01:44:25;16.10;99.90
563;DHT22;266;49.514;8.294;2022-10-16T01:46:57;16.10;99.90
563;DHT22;266;49.514;8.294;2022-10-16T01:49:31;16.10;99.90
563;DHT22;266;49.514;8.294;2022-10-16T01:52:04;16.10;99.90
563;DHT22;266;49.514;8.294;2022-10-16T01:54:37;16.10;99.90
563;DHT22;266;49.514;8.294;2022-10-16T01:57:07;16.00;99.90
563;DHT22;266;49.514;8.294;2022-10-16T01:59:43;16.00;99.90
563;DHT22;266;49.514;8.294;2022-10-16T02:02:15;16.00;99.90
563;DHT22;266;49.514;8.294;2022-10-16T02:04:49;16.00;99.90
563;DHT22;266;49.514;8.294;2022-10-16T02:07:22;16.10;99.90
563;DHT22;266;49.514;8.294;2022-10-16T02:09:52;16.10;99.90
563;DHT22;266;49.514;8.294;2022-10-16T02:12:25;16.00;99.90
563;DHT22;266;49.514;8.294;2022-10-16T02:14:58;15.90;99.90
563;DHT22;266;49.514;8.294;2022-10-16T02:17:27;15.90;99.90
563;DHT22;266;49.514;8.294;2022-10-16T02:19:57;15.90;99.90
563;DHT22;266;49.514;8.294;2022-10-16T02:22:28;15.90;99.90
563;DHT22;266;49.514;8.294;2022-10-16T02:25:01;15.90;99.90
563;DHT22;266;49.514;8.294;2022-10-16T02:27:34;15.90;99.90
563;DHT22;266;49.514;8.294;2022-10-16T02:30:09;16.00;99.90
563;DHT22;266;49.514;8.294;2022-10-16T02:32:42;15.90;99.90
563;DHT22;266;49.514;8.294;2022-10-16T02:35:18;15.90;99.90
563;DHT22;266;49.514;8.294;2022-10-16T02:37:50;16.00;99.90
563;DHT22;266;49.514;8.294;2022-10-16T02:40:20;16.00;99.90
563;DHT22;266;49.514;8.294;2022-10-16T02:42:53;15.90;99.90
563;DHT22;266;49.514;8.294;2022-10-16T02:45:23;16.00;99.90
563;DHT22;266;49.514;8.294;2022-10-16T02:47:58;16.00;99.90
563;DHT22;266;49.514;8.294;2022-10-16T02:50:28;16.00;99.90
563;DHT22;266;49.514;8.294;2022-10-16T02:52:56;16.00;99.90
563;DHT22;266;49.514;8.294;2022-10-16T02:55:26;16.00;99.90
563;DHT22;266;49.514;8.294;2022-10-16T02:57:55;16.00;99.90
563;DHT22;266;49.514;8.294;2022-10-16T03:00:26;16.00;99.90
563;DHT22;266;49.514;8.294;2022-10-16T03:02:56;16.00;99.90
563;DHT22;266;49.514;8.294;2022-10-16T03:05:24;16.00;99.90
563;DHT22;266;49.514;8.294;2022-10-16T03:07:54;16.00;99.90
563;DHT22;266;49.514;8.294;2022-10-16T03:10:22;15.90;99.90
563;DHT22;266;49.514;8.294;2022-10-16T03:12:52;15.90;99.90
563;DHT22;266;49.514;8.294;2022-10-16T03:15:25;15.90;99.90
563;DHT22;266;49.514;8.294;2022-10-16T03:17:55;15.90;99.90
563;DHT22;266;49.514;8.294;2022-10-16T03:20:25;15.90;99.90
563;DHT22;266;49.514;8.294;2022-10-16T03:22:54;15.90;99.90
563;DHT22;266;49.514;8.294;2022-10-16T03:25:22;15.90;99.90
563;DHT22;266;49.514;8.294;2022-10-16T03:27:51;15.90;99.90
563;DHT22;266;49.514;8.294;2022-10-16T03:30:20;16.00;99.90
563;DHT22;266;49.514;8.294;2022-10-16T03:32:51;15.90;99.90
563;DHT22;266;49.514;8.294;2022-10-16T03:35:24;15.90;99.90
563;DHT22;266;49.514;8.294;2022-10-16T03:37:52;15.90;99.90
563;DHT22;266;49.514;8.294;2022-10-16T03:40:21;15.90;99.90
563;DHT22;266;49.514;8.294;2022-10-16T03:42:52;15.90;99.90
563;DHT22;266;49.514;8.294;2022-10-16T03:45:23;15.90;99.90
563;DHT22;266;49.514;8.294;2022-10-16T03:47:55;15.90;99.90
563;DHT22;266;49.514;8.294;2022-10-16T03:50:23;15.90;99.90
563;DHT22;266;49.514;8.294;2022-10-16T03:52:53;15.90;99.90
563;DHT22;266;49.514;8.294;2022-10-16T03:55:23;15.90;99.90
563;DHT22;266;49.514;8.294;2022-10-16T03:57:51;15.90;99.90
563;DHT22;266;49.514;8.294;2022-10-16T04:00:20;15.90;99.90
563;DHT22;266;49.514;8.294;2022-10-16T04:02:49;15.90;99.90
563;DHT22;266;49.514;8.294;2022-10-16T04:05:21;15.90;99.90
563;DHT22;266;49.514;8.294;2022-10-16T04:07:50;15.80;99.90
563;DHT22;266;49.514;8.294;2022-10-16T04:10:21;15.90;99.90
563;DHT22;266;49.514;8.294;2022-10-16T04:12:49;15.80;99.90
563;DHT22;266;49.514;8.294;2022-10-16T04:15:20;15.70;99.90
563;DHT22;266;49.514;8.294;2022-10-16T04:17:52;15.70;99.90
563;DHT22;266;49.514;8.294;2022-10-16T04:20:23;15.60;99.90
563;DHT22;266;49.514;8.294;2022-10-16T04:22:53;15.60;99.90
563;DHT22;266;49.514;8.294;2022-10-16T04:25:20;15.60;99.90
563;DHT22;266;49.514;8.294;2022-10-16T04:27:52;15.60;99.90
563;DHT22;266;49.514;8.294;2022-10-16T04:30:22;15.60;99.90
563;DHT22;266;49.514;8.294;2022-10-16T04:32:50;15.60;99.90
563;DHT22;266;49.514;8.294;2022-10-16T04:35:22;15.60;99.90
563;DHT22;266;49.514;8.294;2022-10-16T04:37:52;15.50;99.90
563;DHT22;266;49.514;8.294;2022-10-16T04:40:23;15.50;99.90
563;DHT22;266;49.514;8.294;2022-10-16T04:42:54;15.60;99.90
563;DHT22;266;49.514;8.294;2022-10-16T04:45:24;15.50;99.90
563;DHT22;266;49.514;8.294;2022-10-16T04:47:57;15.50;99.90
563;DHT22;266;49.514;8.294;2022-10-16T04:50:28;15.50;99.90
563;DHT22;266;49.514;8.294;2022-10-16T04:52:59;15.50;99.90
563;DHT22;266;49.514;8.294;2022-10-16T04:55:27;15.60;99.90
563;DHT22;266;49.514;8.294;2022-10-16T04:57:58;15.60;99.90
563;DHT22;266;49.514;8.294;2022-10-16T05:00:27;15.60;99.90
563;DHT22;266;49.514;8.294;2022-10-16T05:02:57;15.50;99.90
563;DHT22;266;49.514;8.294;2022-10-16T05:05:30;15.60;99.90
563;DHT22;266;49.514;8.294;2022-10-16T05:07:58;15.60;99.90
563;DHT22;266;49.514;8.294;2022-10-16T05:10:28;15.60;99.90
563;DHT22;266;49.514;8.294;2022-10-16T05:12:56;15.60;99.90
563;DHT22;266;49.514;8.294;2022-10-16T05:15:25;15.70;99.90
563;DHT22;266;49.514;8.294;2022-10-16T05:17:53;15.70;99.90
563;DHT22;266;49.514;8.294;2022-10-16T05:20:23;15.70;99.90
563;DHT22;266;49.514;8.294;2022-10-16T05:22:52;15.70;99.90
563;DHT22;266;49.514;8.294;2022-10-16T05:25:20;15.60;99.90
563;DHT22;266;49.514;8.294;2022-10-16T05:27:49;15.60;99.90
563;DHT22;266;49.514;8.294;2022-10-16T05:30:19;15.50;99.90
563;DHT22;266;49.514;8.294;2022-10-16T05:32:50;15.50;99.90
563;DHT22;266;49.514;8.294;2022-10-16T05:35:21;15.50;99.90
563;DHT22;266;49.514;8.294;2022-10-16T05:37:49;15.50;99.90
563;DHT22;266;49.514;8.294;2022-10-16T05:40:25;15.60;99.90
563;DHT22;266;49.514;8.294;2022-10-16T05:42:57;15.60;99.90
563;DHT22;266;49.514;8.294;2022-10-16T05:45:26;15.60;99.90
563;DHT22;266;49.514;8.294;2022-10-16T05:47:54;15.60;99.90
563;DHT22;266;49.514;8.294;2022-10-16T05:50:24;15.60;99.90
563;DHT22;266;49.514;8.294;2022-10-16T05:52:52;15.60;99.90
563;DHT22;266;49.514;8.294;2022-10-16T05:55:23;15.60;99.90
563;DHT22;266;49.514;8.294;2022-10-16T05:57:54;15.60;99.90
563;DHT22;266;49.514;8.294;2022-10-16T06:00:25;15.60;99.90
563;DHT22;266;49.514;8.294;2022-10-16T06:02:53;15.60;99.90
563;DHT22;266;49.514;8.294;2022-10-16T06:05:23;15.60;99.90
563;DHT22;266;49.514;8.294;2022-10-16T06:07:52;15.60;99.90
563;DHT22;266;49.514;8.294;2022-10-16T06:10:22;15.60;99.90
563;DHT22;266;49.514;8.294;2022-10-16T06:12:50;15.60;99.90
563;DHT22;266;49.514;8.294;2022-10-16T06:15:22;15.50;99.90
563;DHT22;266;49.514;8.294;2022-10-16T06:17:54;15.50;99.90
563;DHT22;266;49.514;8.294;2022-10-16T06:20:26;15.50;99.90
563;DHT22;266;49.514;8.294;2022-10-16T06:22:57;15.50;99.90
563;DHT22;266;49.514;8.294;2022-10-16T06:25:28;15.50;99.90
563;DHT22;266;49.514;8.294;2022-10-16T06:27:56;15.60;99.90
563;DHT22;266;49.514;8.294;2022-10-16T06:30:25;15.60;99.90
563;DHT22;266;49.514;8.294;2022-10-16T06:32:54;15.50;99.90
563;DHT22;266;49.514;8.294;2022-10-16T06:35:24;15.50;99.90
563;DHT22;266;49.514;8.294;2022-10-16T06:37:52;15.60;99.90
563;DHT22;266;49.514;8.294;2022-10-16T06:40:22;15.60;99.90
563;DHT22;266;49.514;8.294;2022-10-16T06:42:56;15.60;99.90
563;DHT22;266;49.514;8.294;2022-10-16T06:45:27;15.60;99.90
563;DHT22;266;49.514;8.294;2022-10-16T06:47:56;15.70;99.90
563;DHT22;266;49.514;8.294;2022-10-16T06:50:24;15.70;99.90
563;DHT22;266;49.514;8.294;2022-10-16T06:52:54;15.70;99.90
563;DHT22;266;49.514;8.294;2022-10-16T06:55:24;15.70;99.90
563;DHT22;266;49.514;8.294;2022-10-16T06:57:56;15.70;99.90
563;DHT22;266;49.514;8.294;2022-10-16T07:00:25;15.80;99.90
563;DHT22;266;49.514;8.294;2022-10-16T07:02:55;15.80;99.90
563;DHT22;266;49.514;8.294;2022-10-16T07:05:26;15.80;99.90
563;DHT22;266;49.514;8.294;2022-10-16T07:08:04;15.80;99.90
563;DHT22;266;49.514;8.294;2022-10-16T07:10:32;15.80;99.90
563;DHT22;266;49.514;8.294;2022-10-16T07:13:04;15.80;99.90
563;DHT22;266;49.514;8.294;2022-10-16T07:15:39;15.80;99.90
563;DHT22;266;49.514;8.294;2022-10-16T07:18:07;15.80;99.90
563;DHT22;266;49.514;8.294;2022-10-16T07:20:38;15.80;99.90
563;DHT22;266;49.514;8.294;2022-10-16T07:23:06;15.80;99.90
563;DHT22;266;49.514;8.294;2022-10-16T07:25:35;15.80;99.90
563;DHT22;266;49.514;8.294;2022-10-16T07:28:06;15.80;99.90
563;DHT22;266;49.514;8.294;2022-10-16T07:30:35;15.80;99.90
563;DHT22;266;49.514;8.294;2022-10-16T07:33:06;15.80;99.90
563;DHT22;266;49.514;8.294;2022-10-16T07:35:33;15.90;99.90
563;DHT22;266;49.514;8.294;2022-10-16T07:38:02;16.00;99.90
563;DHT22;266;49.514;8.294;2022-10-16T07:40:33;16.00;99.90
563;DHT22;266;49.514;8.294;2022-10-16T07:43:02;16.00;99.90
563;DHT22;266;49.514;8.294;2022-10-16T07:45:33;16.00;99.90
563;DHT22;266;49.514;8.294;2022-10-16T07:48:01;16.00;99.90
563;DHT22;266;49.514;8.294;2022-10-16T07:50:33;16.00;99.90
563;DHT22;266;49.514;8.294;2022-10-16T07:53:01;16.00;99.90
563;DHT22;266;49.514;8.294;2022-10-16T07:55:30;16.00;99.90
563;DHT22;266;49.514;8.294;2022-10-16T07:57:58;16.00;99.90
563;DHT22;266;49.514;8.294;2022-10-16T08:00:26;16.00;99.90
563;DHT22;266;49.514;8.294;2022-10-16T08:02:57;16.10;99.90
563;DHT22;266;49.514;8.294;2022-10-16T08:05:29;16.10;99.90
563;DHT22;266;49.514;8.294;2022-10-16T08:07:59;16.10;99.90
563;DHT22;266;49.514;8.294;2022-10-16T08:10:27;16.10;99.90
563;DHT22;266;49.514;8.294;2022-10-16T08:12:57;16.10;99.90
563;DHT22;266;49.514;8.294;2022-10-16T08:15:25;16.10;99.90
563;DHT22;266;49.514;8.294;2022-10-16T08:18:00;16.10;99.90
563;DHT22;266;49.514;8.294;2022-10-16T08:20:29;16.20;99.90
563;DHT22;266;49.514;8.294;2022-10-16T08:23:01;16.10;99.90
563;DHT22;266;49.514;8.294;2022-10-16T08:25:29;16.00;99.90
563;DHT22;266;49.514;8.294;2022-10-16T08:28:00;16.00;99.90
563;DHT22;266;49.514;8.294;2022-10-16T08:30:32;16.00;99.90
563;DHT22;266;49.514;8.294;2022-10-16T08:33:02;16.00;99.90
563;DHT22;266;49.514;8.294;2022-10-16T08:35:34;16.00;99.90
563;DHT22;266;49.514;8.294;2022-10-16T08:38:03;16.00;99.90
563;DHT22;266;49.514;8.294;2022-10-16T08:40:36;16.00;99.90
563;DHT22;266;49.514;8.294;2022-10-16T08:43:28;16.00;99.90
563;DHT22;266;49.514;8.294;2022-10-16T08:46:19;16.00;99.90
563;DHT22;266;49.514;8.294;2022-10-16T08:49:01;16.00;99.90
563;DHT22;266;49.514;8.294;2022-10-16T08:51:32;16.10;99.90
563;DHT22;266;49.514;8.294;2022-10-16T08:54:26;16.10;99.90
563;DHT22;266;49.514;8.294;2022-10-16T08:57:01;16.10;99.90
563;DHT22;266;49.514;8.294;2022-10-16T08:59:34;16.20;99.90
563;DHT22;266;49.514;8.294;2022-10-16T09:02:19;16.30;99.90
563;DHT22;266;49.514;8.294;2022-10-16T09:05:11;16.40;99.90
563;DHT22;266;49.514;8.294;2022-10-16T09:08:03;16.50;99.90
563;DHT22;266;49.514;8.294;2022-10-16T09:10:47;16.60;99.90
563;DHT22;266;49.514;8.294;2022-10-16T09:13:22;16.80;99.90
563;DHT22;266;49.514;8.294;2022-10-16T09:16:10;16.90;99.90
563;DHT22;266;49.514;8.294;2022-10-16T09:18:47;17.00;99.90
563;DHT22;266;49.514;8.294;2022-10-16T09:21:20;17.20;99.90
563;DHT22;266;49.514;8.294;2022-10-16T09:23:50;17.40;99.90
563;DHT22;266;49.514;8.294;2022-10-16T09:26:18;17.50;99.90
563;DHT22;266;49.514;8.294;2022-10-16T09:28:52;17.90;99.90
563;DHT22;266;49.514;8.294;2022-10-16T09:31:22;17.90;99.90
563;DHT22;266;49.514;8.294;2022-10-16T09:33:55;18.20;99.90
563;DHT22;266;49.514;8.294;2022-10-16T09:36:30;18.40;99.90
563;DHT22;266;49.514;8.294;2022-10-16T09:39:06;18.40;99.90
563;DHT22;266;49.514;8.294;2022-10-16T09:41:34;18.40;99.90
563;DHT22;266;49.514;8.294;2022-10-16T09:44:06;18.40;99.90
563;DHT22;266;49.514;8.294;2022-10-16T09:46:41;18.30;99.90
563;DHT22;266;49.514;8.294;2022-10-16T09:49:21;18.40;99.90
563;DHT22;266;49.514;8.294;2022-10-16T09:51:51;18.60;99.90
563;DHT22;266;49.514;8.294;2022-10-16T09:54:30;18.80;99.90
563;DHT22;266;49.514;8.294;2022-10-16T09:57:05;18.70;99.90
563;DHT22;266;49.514;8.294;2022-10-16T09:59:45;18.80;99.90
563;DHT22;266;49.514;8.294;2022-10-16T10:02:15;19.00;99.90
563;DHT22;266;49.514;8.294;2022-10-16T10:04:49;19.10;99.90
563;DHT22;266;49.514;8.294;2022-10-16T10:07:24;19.30;99.90
563;DHT22;266;49.514;8.294;2022-10-16T10:09:56;19.50;99.90
563;DHT22;266;49.514;8.294;2022-10-16T10:12:27;19.60;99.90
563;DHT22;266;49.514;8.294;2022-10-16T10:14:58;19.50;99.90
563;DHT22;266;49.514;8.294;2022-10-16T10:17:33;19.70;99.90
563;DHT22;266;49.514;8.294;2022-10-16T10:20:21;19.70;99.90
563;DHT22;266;49.514;8.294;2022-10-16T10:22:51;19.80;99.90
563;DHT22;266;49.514;8.294;2022-10-16T10:25:35;20.00;99.90
563;DHT22;266;49.514;8.294;2022-10-16T10:28:25;20.10;99.90
563;DHT22;266;49.514;8.294;2022-10-16T10:31:01;20.10;99.90
563;DHT22;266;49.514;8.294;2022-10-16T10:33:40;20.00;99.90
563;DHT22;266;49.514;8.294;2022-10-16T10:36:21;19.90;99.90
563;DHT22;266;49.514;8.294;2022-10-16T10:38:56;19.60;99.90
563;DHT22;266;49.514;8.294;2022-10-16T10:41:59;19.50;99.90
563;DHT22;266;49.514;8.294;2022-10-16T10:44:50;19.40;99.90
563;DHT22;266;49.514;8.294;2022-10-16T10:47:35;19.60;99.90
563;DHT22;266;49.514;8.294;2022-10-16T10:50:14;19.80;99.90
563;DHT22;266;49.514;8.294;2022-10-16T10:52:57;19.90;99.90
563;DHT22;266;49.514;8.294;2022-10-16T10:55:37;20.00;99.90
563;DHT22;266;49.514;8.294;2022-10-16T10:58:38;20.10;99.90
563;DHT22;266;49.514;8.294;2022-10-16T11:01:12;20.30;99.90
563;DHT22;266;49.514;8.294;2022-10-16T11:06:45;20.60;99.90
563;DHT22;266;49.514;8.294;2022-10-16T11:09:19;20.60;99.90
563;DHT22;266;49.514;8.294;2022-10-16T11:11:51;20.70;99.90
563;DHT22;266;49.514;8.294;2022-10-16T11:14:25;20.80;99.90
563;DHT22;266;49.514;8.294;2022-10-16T11:16:58;21.00;99.90
563;DHT22;266;49.514;8.294;2022-10-16T11:19:33;21.10;99.90
563;DHT22;266;49.514;8.294;2022-10-16T11:22:09;21.20;99.90
563;DHT22;266;49.514;8.294;2022-10-16T11:24:45;21.40;99.90
563;DHT22;266;49.514;8.294;2022-10-16T11:27:31;21.50;99.90
563;DHT22;266;49.514;8.294;2022-10-16T11:30:06;21.70;99.90
563;DHT22;266;49.514;8.294;2022-10-16T11:32:49;21.90;99.90
563;DHT22;266;49.514;8.294;2022-10-16T11:35:22;22.10;99.90
563;DHT22;266;49.514;8.294;2022-10-16T11:37:54;22.10;99.90
563;DHT22;266;49.514;8.294;2022-10-16T11:40:28;22.30;99.90
563;DHT22;266;49.514;8.294;2022-10-16T11:43:08;22.50;99.90
563;DHT22;266;49.514;8.294;2022-10-16T11:45:41;22.70;99.90
563;DHT22;266;49.514;8.294;2022-10-16T11:48:20;22.70;99.90
563;DHT22;266;49.514;8.294;2022-10-16T11:50:53;22.70;99.90
563;DHT22;266;49.514;8.294;2022-10-16T11:53:31;22.90;99.90
563;DHT22;266;49.514;8.294;2022-10-16T11:56:05;23.00;99.90
563;DHT22;266;49.514;8.294;2022-10-16T11:58:41;22.90;99.90
563;DHT22;266;49.514;8.294;2022-10-16T12:01:18;22.70;99.90
563;DHT22;266;49.514;8.294;2022-10-16T12:04:05;22.50;99.90
563;DHT22;266;49.514;8.294;2022-10-16T12:06:42;22.40;99.90
563;DHT22;266;49.514;8.294;2022-10-16T12:09:20;22.20;99.90
563;DHT22;266;49.514;8.294;2022-10-16T12:11:51;22.10;99.90
563;DHT22;266;49.514;8.294;2022-10-16T12:14:33;22.00;99.90
563;DHT22;266;49.514;8.294;2022-10-16T12:17:27;21.80;99.90
563;DHT22;266;49.514;8.294;2022-10-16T12:20:23;21.60;99.90
563;DHT22;266;49.514;8.294;2022-10-16T12:22:56;21.60;99.90
563;DHT22;266;49.514;8.294;2022-10-16T12:25:26;21.60;99.90
563;DHT22;266;49.514;8.294;2022-10-16T12:28:01;21.60;99.90
563;DHT22;266;49.514;8.294;2022-10-16T12:30:33;21.50;99.90
563;DHT22;266;49.514;8.294;2022-10-16T12:33:15;21.50;99.90
563;DHT22;266;49.514;8.294;2022-10-16T12:35:47;21.50;99.90
563;DHT22;266;49.514;8.294;2022-10-16T12:38:21;21.50;99.90
563;DHT22;266;49.514;8.294;2022-10-16T12:40:57;21.60;99.90
563;DHT22;266;49.514;8.294;2022-10-16T12:43:35;21.70;99.90
563;DHT22;266;49.514;8.294;2022-10-16T12:46:22;21.70;99.90
563;DHT22;266;49.514;8.294;2022-10-16T12:49:20;21.80;99.90
563;DHT22;266;49.514;8.294;2022-10-16T12:51:52;21.80;99.90
563;DHT22;266;49.514;8.294;2022-10-16T12:54:25;21.70;99.90
563;DHT22;266;49.514;8.294;2022-10-16T12:57:12;21.60;99.90
563;DHT22;266;49.514;8.294;2022-10-16T12:59:56;21.50;99.90
563;DHT22;266;49.514;8.294;2022-10-16T13:02:50;21.40;99.90
563;DHT22;266;49.514;8.294;2022-10-16T13:05:33;21.30;99.90
563;DHT22;266;49.514;8.294;2022-10-16T13:08:20;21.30;99.90
563;DHT22;266;49.514;8.294;2022-10-16T13:11:03;21.30;99.90
563;DHT22;266;49.514;8.294;2022-10-16T13:14:03;21.10;99.90
563;DHT22;266;49.514;8.294;2022-10-16T13:16:52;21.00;99.90
563;DHT22;266;49.514;8.294;2022-10-16T13:19:30;20.90;99.90
563;DHT22;266;49.514;8.294;2022-10-16T13:22:05;20.80;99.90
563;DHT22;266;49.514;8.294;2022-10-16T13:24:47;20.70;99.90
563;DHT22;266;49.514;8.294;2022-10-16T13:27:28;20.60;99.90
563;DHT22;266;49.514;8.294;2022-10-16T13:30:10;20.60;99.90
563;DHT22;266;49.514;8.294;2022-10-16T13:32:39;20.60;99.90
563;DHT22;266;49.514;8.294;2022-10-16T13:35:22;20.60;99.90
563;DHT22;266;49.514;8.294;2022-10-16T13:38:02;20.60;99.90
563;DHT22;266;49.514;8.294;2022-10-16T13:40:30;20.60;99.90
563;DHT22;266;49.514;8.294;2022-10-16T13:42:59;20.60;99.90
563;DHT22;266;49.514;8.294;2022-10-16T13:45:29;20.60;99.90
563;DHT22;266;49.514;8.294;2022-10-16T13:48:02;20.60;99.90
563;DHT22;266;49.514;8.294;2022-10-16T13:50:32;20.70;99.90
563;DHT22;266;49.514;8.294;2022-10-16T13:53:05;20.70;99.90
563;DHT22;266;49.514;8.294;2022-10-16T13:55:36;20.70;99.90
563;DHT22;266;49.514;8.294;2022-10-16T13:58:08;20.70;99.90
563;DHT22;266;49.514;8.294;2022-10-16T14:00:38;20.60;99.90
563;DHT22;266;49.514;8.294;2022-10-16T14:03:13;20.60;99.90
563;DHT22;266;49.514;8.294;2022-10-16T14:05:48;20.50;99.90
563;DHT22;266;49.514;8.294;2022-10-16T14:08:16;20.50;99.90
563;DHT22;266;49.514;8.294;2022-10-16T14:10:48;20.40;99.90
563;DHT22;266;49.514;8.294;2022-10-16T14:13:18;20.50;99.90
563;DHT22;266;49.514;8.294;2022-10-16T14:15:49;20.60;99.90
563;DHT22;266;49.514;8.294;2022-10-16T14:18:23;20.70;99.90
563;DHT22;266;49.514;8.294;2022-10-16T14:20:54;20.70;99.90
563;DHT22;266;49.514;8.294;2022-10-16T14:23:29;20.70;99.90
563;DHT22;266;49.514;8.294;2022-10-16T14:26:07;20.70;99.90
563;DHT22;266;49.514;8.294;2022-10-16T14:28:43;20.70;99.90
563;DHT22;266;49.514;8.294;2022-10-16T14:31:27;20.60;99.90
563;DHT22;266;49.514;8.294;2022-10-16T14:34:00;20.60;99.90
563;DHT22;266;49.514;8.294;2022-10-16T14:36:34;20.60;99.90
563;DHT22;266;49.514;8.294;2022-10-16T14:39:17;20.60;99.90
563;DHT22;266;49.514;8.294;2022-10-16T14:41:48;20.60;99.90
563;DHT22;266;49.514;8.294;2022-10-16T14:44:25;20.40;99.90
563;DHT22;266;49.514;8.294;2022-10-16T14:46:55;20.40;99.90
563;DHT22;266;49.514;8.294;2022-10-16T14:49:25;20.40;99.90
563;DHT22;266;49.514;8.294;2022-10-16T14:51:56;20.40;99.90
563;DHT22;266;49.514;8.294;2022-10-16T14:54:26;20.40;99.90
563;DHT22;266;49.514;8.294;2022-10-16T14:56:58;20.50;99.90
563;DHT22;266;49.514;8.294;2022-10-16T14:59:29;20.60;99.90
563;DHT22;266;49.514;8.294;2022-10-16T15:02:15;20.60;99.90
563;DHT22;266;49.514;8.294;2022-10-16T15:04:46;20.60;99.90
563;DHT22;266;49.514;8.294;2022-10-16T15:07:19;20.60;99.90
563;DHT22;266;49.514;8.294;2022-10-16T15:09:48;20.60;99.90
563;DHT22;266;49.514;8.294;2022-10-16T15:12:18;20.70;99.90
563;DHT22;266;49.514;8.294;2022-10-16T15:14:48;20.70;99.90
563;DHT22;266;49.514;8.294;2022-10-16T15:17:16;20.80;99.90
563;DHT22;266;49.514;8.294;2022-10-16T15:19:47;20.70;99.90
563;DHT22;266;49.514;8.294;2022-10-16T15:22:19;20.70;99.90
563;DHT22;266;49.514;8.294;2022-10-16T15:24:51;20.60;99.90
563;DHT22;266;49.514;8.294;2022-10-16T15:27:19;20.60;99.90
563;DHT22;266;49.514;8.294;2022-10-16T15:29:48;20.60;99.90
563;DHT22;266;49.514;8.294;2022-10-16T15:32:15;20.50;99.90
563;DHT22;266;49.514;8.294;2022-10-16T15:34:45;20.50;99.90
563;DHT22;266;49.514;8.294;2022-10-16T15:37:14;20.50;99.90
563;DHT22;266;49.514;8.294;2022-10-16T15:39:50;20.50;99.90
563;DHT22;266;49.514;8.294;2022-10-16T15:42:19;20.40;99.90
563;DHT22;266;49.514;8.294;2022-10-16T15:44:50;20.30;99.90
563;DHT22;266;49.514;8.294;2022-10-16T15:47:19;20.40;99.90
563;DHT22;266;49.514;8.294;2022-10-16T15:49:48;20.30;99.90
563;DHT22;266;49.514;8.294;2022-10-16T15:52:17;20.30;99.90
563;DHT22;266;49.514;8.294;2022-10-16T15:54:47;20.30;99.90
563;DHT22;266;49.514;8.294;2022-10-16T15:57:20;20.20;99.90
563;DHT22;266;49.514;8.294;2022-10-16T15:59:50;20.10;99.90
563;DHT22;266;49.514;8.294;2022-10-16T16:02:23;20.00;99.90
563;DHT22;266;49.514;8.294;2022-10-16T16:04:51;19.90;99.90
563;DHT22;266;49.514;8.294;2022-10-16T16:07:20;19.80;99.90
563;DHT22;266;49.514;8.294;2022-10-16T16:09:54;19.70;99.90
563;DHT22;266;49.514;8.294;2022-10-16T16:12:23;19.60;99.90
563;DHT22;266;49.514;8.294;2022-10-16T16:14:51;19.60;99.90
563;DHT22;266;49.514;8.294;2022-10-16T16:17:21;19.50;99.90
563;DHT22;266;49.514;8.294;2022-10-16T16:19:55;19.40;99.90
563;DHT22;266;49.514;8.294;2022-10-16T16:22:25;19.30;99.90
563;DHT22;266;49.514;8.294;2022-10-16T16:24:59;19.30;99.90
563;DHT22;266;49.514;8.294;2022-10-16T16:27:32;19.30;99.90
563;DHT22;266;49.514;8.294;2022-10-16T16:30:02;19.20;99.90
563;DHT22;266;49.514;8.294;2022-10-16T16:32:35;19.10;99.90
563;DHT22;266;49.514;8.294;2022-10-16T16:35:04;19.10;99.90
563;DHT22;266;49.514;8.294;2022-10-16T16:37:34;18.90;99.90
563;DHT22;266;49.514;8.294;2022-10-16T16:40:07;18.80;99.90
563;DHT22;266;49.514;8.294;2022-10-16T16:42:37;18.80;99.90
563;DHT22;266;49.514;8.294;2022-10-16T16:45:08;18.80;99.90
563;DHT22;266;49.514;8.294;2022-10-16T16:47:39;18.70;99.90
563;DHT22;266;49.514;8.294;2022-10-16T16:50:16;18.70;99.90
563;DHT22;266;49.514;8.294;2022-10-16T16:52:45;18.60;99.90
563;DHT22;266;49.514;8.294;2022-10-16T16:55:21;18.60;99.90
563;DHT22;266;49.514;8.294;2022-10-16T16:57:51;18.60;99.90
563;DHT22;266;49.514;8.294;2022-10-16T17:00:22;18.60;99.90
563;DHT22;266;49.514;8.294;2022-10-16T17:02:50;18.60;99.90
563;DHT22;266;49.514;8.294;2022-10-16T17:05:19;18.50;99.90
563;DHT22;266;49.514;8.294;2022-10-16T17:07:47;18.50;99.90
563;DHT22;266;49.514;8.294;2022-10-16T17:10:20;18.40;99.90
563;DHT22;266;49.514;8.294;2022-10-16T17:12:48;18.40;99.90
563;DHT22;266;49.514;8.294;2022-10-16T17:15:16;18.30;99.90